Ana Sayfa
METAR-TAF:

METAR-TAF

Havaalanları :

Reynosa, Meksika

Enlem: 26-01N, Boylam: 098-14W, yükseklik: 39 m

Güncel hava durumu gözlemi

Rapor saat 02:44 UTC de 5 saat ve 27 dakika önce yapıldı.
Sakin rüzgar
Sıcaklık 16°C
Nem 45%
Basınç 1013 hPa
Görüş mesafesi: 9.7 km
Açık gökyüzü

METAR: MMRX 140244Z 00000KT 6SM SKC 16/04 A2990 RMK SLP123 52011 9// HZ FU

Saat: 02:11 (08:11 UTC)

Tahmin

Rapor saat 05:25 UTC de 2 saat ve 46 dakika önce yapıldı.
Ayın 14'si saat 06 UTC'den ayın 15'si saat 06 UTC'ye kadar geçerli Tahmin
Rüzgar kuzeydan kt
Görüş mesafesi: 9.7 km
Açık gökyüzü
Toz Pusu
Ayın 14'si saat 1800 UTC'den
Rüzgar güney/güneybatıdan 10 kt
Görüş mesafesi: 10 km
Açık gökyüzü
Dönüşüyor
ayın 15'si saat 03 UTC'den ayın 15'si saat 05 UTC'ye kadar
Rüzgar güney/güneydoğudan 8 kt

TAF: MMRX 140525Z 1406/1506 00000KT 6SM HZ SKC FM141800 20010KT P6SM SKC BECMG 1503/1505 15008KT

4.000'den fazla havaalanı için hava durumu gözlemleri ve tahminleri (METAR ve TAF raporları).

Kullanılabilir istasyonlar harita üzerinde sarı ve kırmızı noktalarla gösterilir.

İstasyonun adını görmek için fareyi noktanın üzerinde gezdirin.

Sonrasında hava gözlem ve tahminlerini görmek için tıklayın.

Haritayı değiştirmek için: yaklaştırmak için siyah artı işaretli yeşil düğmeye ve uzaklaştırmak için de eksi işaretli düğmeye hızla tıklayın; bitişik haritalar için yeşil okları kullanın.


METAR-TAF: